Time;durP1;ratioP1;P1;durP2;ratioP2;P2;SDS_P1;SDS_P2;PMS_P1;PMS_P2;Temp;Humidity;BMP_temperature;BMP_pressure;BME280_temperature;BME280_humidity;BME280_pressure;Samples;Min_cycle;Max_cycle;Signal;HPM_P1;HPM_P2
2022/05/06 00:00:47;;;;;;;6.88;6.18;;;11.50;99.90;;;;;;2070875;28;20026;-69
2022/05/06 00:01:49;;;;;;;9.75;6.88;;;11.50;99.90;;;;;;2071087;28;20018;-69
2022/05/06 00:02:50;;;;;;;8.57;6.28;;;11.50;99.90;;;;;;2070120;28;20391;-69
2022/05/06 00:03:50;;;;;;;8.35;6.38;;;11.40;99.90;;;;;;2066715;28;20045;-69
2022/05/06 00:04:51;;;;;;;9.25;6.60;;;11.40;99.90;;;;;;2069870;28;20094;-69
2022/05/06 00:05:52;;;;;;;7.72;6.80;;;11.40;99.90;;;;;;2072482;28;20030;-69
2022/05/06 00:06:53;;;;;;;8.45;6.85;;;11.40;99.90;;;;;;2073275;28;20030;-69
2022/05/06 00:07:53;;;;;;;7.60;6.80;;;11.40;99.90;;;;;;2069805;28;20041;-69
2022/05/06 00:08:54;;;;;;;6.85;6.22;;;11.30;99.90;;;;;;2067621;28;20632;-69
2022/05/06 00:09:55;;;;;;;8.70;6.93;;;11.30;99.90;;;;;;2070735;28;20105;-69
2022/05/06 00:10:55;;;;;;;7.45;6.75;;;11.30;99.90;;;;;;2074160;28;20428;-69
2022/05/06 00:11:56;;;;;;;10.15;7.50;;;11.30;99.90;;;;;;2067993;28;20110;-69
2022/05/06 00:12:56;;;;;;;7.43;6.53;;;11.30;99.90;;;;;;2070490;28;20037;-69
2022/05/06 00:13:57;;;;;;;11.23;7.22;;;11.30;99.90;;;;;;2071771;28;20050;-69
2022/05/06 00:14:58;;;;;;;8.40;7.15;;;11.30;99.90;;;;;;2071378;28;20244;-69
2022/05/06 00:15:59;;;;;;;8.73;7.20;;;11.30;99.90;;;;;;2069058;28;20025;-69
2022/05/06 00:16:59;;;;;;;7.47;6.47;;;11.20;99.90;;;;;;2072137;28;20639;-69
2022/05/06 00:18:00;;;;;;;10.75;7.05;;;11.20;99.90;;;;;;2072235;28;20600;-69
2022/05/06 00:19:00;;;;;;;10.45;7.47;;;11.20;99.90;;;;;;2067472;28;20026;-69
2022/05/06 00:20:01;;;;;;;7.78;6.85;;;11.20;99.90;;;;;;2070461;28;20045;-69
2022/05/06 00:21:01;;;;;;;7.80;6.95;;;11.20;99.90;;;;;;2070627;28;20018;-69
2022/05/06 00:22:02;;;;;;;13.20;7.68;;;11.20;99.90;;;;;;2073159;28;20018;-69
2022/05/06 00:23:03;;;;;;;10.23;6.95;;;11.20;99.90;;;;;;2071202;28;20030;-69
2022/05/06 00:24:05;;;;;;;9.48;7.40;;;11.20;99.90;;;;;;2067817;28;20446;-69
2022/05/06 00:25:06;;;;;;;7.30;6.20;;;11.20;99.90;;;;;;2070554;28;20022;-69
2022/05/06 00:26:07;;;;;;;8.35;7.45;;;11.10;99.90;;;;;;2069782;28;20551;-69
2022/05/06 00:27:08;;;;;;;7.70;6.95;;;11.10;99.90;;;;;;2070004;28;20045;-69
2022/05/06 00:28:08;;;;;;;9.13;7.43;;;11.10;99.90;;;;;;2070874;28;20069;-69
2022/05/06 00:29:09;;;;;;;12.93;8.10;;;11.10;99.90;;;;;;2070105;28;20021;-69
2022/05/06 00:30:10;;;;;;;8.80;7.68;;;11.10;99.90;;;;;;2069986;28;20040;-69
2022/05/06 00:31:12;;;;;;;11.52;7.30;;;11.10;99.90;;;;;;2069883;28;20071;-69
2022/05/06 00:32:12;;;;;;;9.80;7.13;;;11.10;99.90;;;;;;2070304;28;20478;-69
2022/05/06 00:33:13;;;;;;;7.55;6.78;;;11.10;99.90;;;;;;2068930;28;20030;-69
2022/05/06 00:34:14;;;;;;;7.72;7.03;;;11.00;99.90;;;;;;2069726;28;20068;-69
2022/05/06 00:35:14;;;;;;;7.60;6.82;;;11.00;99.90;;;;;;2070762;28;20083;-69
2022/05/06 00:36:15;;;;;;;11.48;7.32;;;11.00;99.90;;;;;;2071853;28;20393;-69
2022/05/06 00:37:16;;;;;;;8.25;7.43;;;11.00;99.90;;;;;;2070618;28;20030;-69
2022/05/06 00:38:16;;;;;;;7.82;7.05;;;11.00;99.90;;;;;;2071665;28;20124;-69
2022/05/06 00:39:17;;;;;;;9.65;7.85;;;11.00;99.90;;;;;;2072469;28;20469;-69
2022/05/06 00:40:17;;;;;;;9.23;7.25;;;10.90;99.90;;;;;;2067940;28;20449;-69
2022/05/06 00:41:18;;;;;;;8.23;7.25;;;10.90;99.90;;;;;;2067693;28;20113;-69
2022/05/06 00:42:19;;;;;;;11.95;7.32;;;10.90;99.90;;;;;;2072023;28;20103;-69
2022/05/06 00:43:21;;;;;;;8.15;7.35;;;10.90;99.90;;;;;;2070283;28;20034;-69
2022/05/06 00:44:25;;;;;;;9.88;7.43;;;10.90;99.90;;;;;;2070985;28;20074;-69
2022/05/06 00:45:40;;;;;;;8.60;6.85;;;10.90;99.90;;;;;;2070060;28;20611;-70
2022/05/06 00:46:41;;;;;;;8.13;6.80;;;10.90;99.90;;;;;;2069343;28;20035;-69
2022/05/06 00:47:42;;;;;;;8.63;7.20;;;10.80;99.90;;;;;;2073125;28;20030;-69
2022/05/06 00:48:45;;;;;;;7.82;7.10;;;10.80;99.90;;;;;;2069980;28;20026;-69
2022/05/06 00:49:46;;;;;;;8.27;6.97;;;10.80;99.90;;;;;;2069009;28;20437;-69
2022/05/06 00:50:48;;;;;;;9.88;7.45;;;10.80;99.90;;;;;;2070340;28;20022;-69
2022/05/06 00:51:51;;;;;;;10.50;7.32;;;10.80;99.90;;;;;;2069684;28;20026;-69
2022/05/06 00:52:53;;;;;;;8.05;7.25;;;10.80;99.90;;;;;;2069995;28;20029;-69
2022/05/06 00:53:56;;;;;;;10.23;7.05;;;10.80;99.90;;;;;;2071516;28;20037;-69
2022/05/06 00:54:56;;;;;;;9.63;7.13;;;10.70;99.90;;;;;;2072664;28;20036;-69
2022/05/06 00:55:57;;;;;;;12.30;6.93;;;10.70;99.90;;;;;;2067531;28;20018;-69
2022/05/06 00:56:58;;;;;;;7.38;6.68;;;10.70;99.90;;;;;;2067451;28;20037;-69
2022/05/06 00:57:59;;;;;;;8.43;7.60;;;10.70;99.90;;;;;;2069298;28;20113;-69
2022/05/06 00:59:00;;;;;;;8.48;7.43;;;10.70;99.90;;;;;;2073782;28;20075;-69
2022/05/06 01:00:20;;;;;;;8.32;6.85;;;10.70;99.90;;;;;;2067536;28;20105;-69
2022/05/06 01:01:21;;;;;;;8.23;6.65;;;10.60;99.90;;;;;;2071734;28;20053;-69
2022/05/06 01:02:23;;;;;;;10.63;7.43;;;10.60;99.90;;;;;;2068307;28;20030;-69
2022/05/06 01:03:23;;;;;;;11.32;7.65;;;10.60;99.90;;;;;;2067509;28;20034;-69
2022/05/06 01:04:24;;;;;;;7.30;6.55;;;10.60;99.90;;;;;;2071395;28;20026;-69
2022/05/06 01:05:26;;;;;;;7.78;7.07;;;10.60;99.90;;;;;;2071168;28;20026;-69
2022/05/06 01:06:26;;;;;;;8.52;7.63;;;10.60;99.90;;;;;;2069119;28;20022;-69
2022/05/06 01:07:27;;;;;;;8.35;7.00;;;10.60;99.90;;;;;;2068624;28;20037;-69
2022/05/06 01:08:29;;;;;;;8.68;6.85;;;10.60;99.90;;;;;;2072524;28;20021;-69
2022/05/06 01:09:29;;;;;;;6.90;6.07;;;10.50;99.90;;;;;;2070965;28;20079;-69
2022/05/06 01:10:30;;;;;;;11.80;7.25;;;10.60;99.90;;;;;;2068922;28;20030;-69
2022/05/06 01:11:31;;;;;;;12.70;7.65;;;10.50;99.90;;;;;;2071391;28;20496;-69
2022/05/06 01:12:32;;;;;;;8.02;7.22;;;10.50;99.90;;;;;;2070070;28;20030;-69
2022/05/06 01:13:44;;;;;;;10.40;6.65;;;10.50;99.90;;;;;;2072772;28;20147;-69
2022/05/06 01:14:45;;;;;;;9.85;6.90;;;10.50;99.90;;;;;;2073862;28;20060;-69
2022/05/06 01:15:46;;;;;;;7.20;6.15;;;10.50;99.90;;;;;;2070824;28;20475;-69
2022/05/06 01:16:46;;;;;;;6.88;6.18;;;10.50;99.90;;;;;;2072239;28;20026;-69
2022/05/06 01:17:48;;;;;;;8.32;6.60;;;10.50;99.90;;;;;;2069624;28;20540;-69
2022/05/06 01:18:48;;;;;;;7.38;6.28;;;10.40;99.90;;;;;;2068424;28;20065;-69
2022/05/06 01:19:49;;;;;;;9.50;7.03;;;10.40;99.90;;;;;;2072936;28;20082;-69
2022/05/06 01:20:51;;;;;;;8.75;6.78;;;10.40;99.90;;;;;;2068091;28;20040;-69
2022/05/06 01:21:55;;;;;;;9.40;7.38;;;10.40;99.90;;;;;;2069792;28;20080;-69
2022/05/06 01:23:00;;;;;;;7.85;7.05;;;10.40;99.90;;;;;;2068716;28;20029;-69
2022/05/06 01:24:01;;;;;;;10.98;6.82;;;10.40;99.90;;;;;;2070409;28;20422;-69
2022/05/06 01:25:02;;;;;;;9.48;7.15;;;10.40;99.90;;;;;;2073052;28;20026;-69
2022/05/06 01:26:03;;;;;;;11.07;7.03;;;10.40;99.90;;;;;;2067869;28;20033;-69
2022/05/06 01:27:08;;;;;;;9.55;7.13;;;10.40;99.90;;;;;;2072413;28;20042;-69
2022/05/06 01:28:12;;;;;;;8.40;7.50;;;10.30;99.90;;;;;;2068521;28;20087;-69
2022/05/06 01:29:13;;;;;;;9.93;8.07;;;10.30;99.90;;;;;;2069779;28;20045;-69
2022/05/06 01:30:34;;;;;;;9.63;7.00;;;10.30;99.90;;;;;;2073187;28;20475;-69
2022/05/06 01:31:36;;;;;;;8.48;7.35;;;10.30;99.90;;;;;;2071160;28;20046;-69
2022/05/06 01:32:37;;;;;;;8.82;6.88;;;10.30;99.90;;;;;;2072039;28;20050;-69
2022/05/06 01:33:38;;;;;;;10.05;7.43;;;10.30;99.90;;;;;;2065785;28;20069;-69
2022/05/06 01:34:40;;;;;;;8.35;7.40;;;10.20;99.90;;;;;;2069157;28;20561;-69
2022/05/06 01:35:51;;;;;;;8.25;6.72;;;10.20;99.90;;;;;;2069424;28;20109;-69
2022/05/06 01:36:54;;;;;;;9.10;7.45;;;10.20;99.90;;;;;;2068825;28;20030;-69
2022/05/06 01:38:00;;;;;;;12.25;7.80;;;10.20;99.90;;;;;;2068614;28;20014;-69
2022/05/06 01:39:01;;;;;;;8.02;6.60;;;10.20;99.90;;;;;;2072914;28;20105;-69
2022/05/06 01:40:04;;;;;;;8.32;7.45;;;10.20;99.90;;;;;;2074215;28;20021;-69
2022/05/06 01:41:13;;;;;;;9.27;7.35;;;10.20;99.90;;;;;;2068145;28;20034;-69
2022/05/06 01:42:16;;;;;;;9.70;7.38;;;10.20;99.90;;;;;;2070724;28;20018;-69
2022/05/06 01:43:18;;;;;;;13.32;7.80;;;10.10;99.90;;;;;;2067545;28;20058;-69
2022/05/06 01:44:22;;;;;;;9.10;7.07;;;10.10;99.90;;;;;;2071218;28;20018;-69
2022/05/06 01:45:24;;;;;;;8.93;6.47;;;10.10;99.90;;;;;;2068724;28;20026;-69
2022/05/06 01:46:27;;;;;;;10.50;7.50;;;10.10;99.90;;;;;;2066611;28;20065;-69
2022/05/06 01:47:30;;;;;;;8.27;7.13;;;10.10;99.90;;;;;;2071889;28;20377;-69
2022/05/06 01:48:32;;;;;;;10.02;7.60;;;10.10;99.90;;;;;;2068148;28;20037;-69
2022/05/06 01:49:33;;;;;;;8.90;8.00;;;10.10;99.90;;;;;;2068405;28;20038;-69
2022/05/06 01:50:37;;;;;;;8.88;7.50;;;10.10;99.90;;;;;;2071767;28;20075;-69
2022/05/06 01:51:39;;;;;;;9.70;7.25;;;10.10;99.90;;;;;;2069519;28;20033;-69
2022/05/06 01:52:41;;;;;;;9.23;7.32;;;10.10;99.90;;;;;;2071340;28;20049;-69
2022/05/06 01:53:42;;;;;;;8.02;6.03;;;10.00;99.90;;;;;;2072956;28;20021;-69
2022/05/06 01:54:44;;;;;;;9.20;7.35;;;10.00;99.90;;;;;;2072415;28;20033;-69
2022/05/06 01:55:46;;;;;;;11.70;8.32;;;10.00;99.90;;;;;;2061960;28;20030;-69
2022/05/06 01:56:47;;;;;;;10.85;7.60;;;10.00;99.90;;;;;;2071788;28;20041;-69
2022/05/06 01:57:47;;;;;;;7.93;7.10;;;10.00;99.90;;;;;;2066838;28;20023;-69
2022/05/06 01:58:49;;;;;;;8.02;7.20;;;10.00;99.90;;;;;;2070517;28;20688;-69
2022/05/06 01:59:49;;;;;;;11.50;7.95;;;10.00;99.90;;;;;;2072513;28;20022;-69
2022/05/06 02:00:50;;;;;;;11.00;7.80;;;10.00;99.90;;;;;;2069724;28;20541;-69
2022/05/06 02:01:50;;;;;;;8.77;7.88;;;10.00;99.90;;;;;;2070522;28;20101;-69
2022/05/06 02:02:51;;;;;;;9.57;7.72;;;10.00;99.90;;;;;;2071756;28;20101;-69
2022/05/06 02:05:17;;;;;;;10.00;8.27;;;9.90;99.90;;;;;;2070643;28;20104;-69
2022/05/06 02:06:17;;;;;;;12.27;8.05;;;9.90;99.90;;;;;;2070603;28;20133;-69
2022/05/06 02:07:18;;;;;;;9.65;7.95;;;9.90;99.90;;;;;;2070785;28;20057;-69
2022/05/06 02:08:18;;;;;;;7.35;6.60;;;9.90;99.90;;;;;;2071744;28;20024;-69
2022/05/06 02:09:19;;;;;;;8.43;7.57;;;9.90;99.90;;;;;;2070410;28;20582;-69
2022/05/06 02:10:21;;;;;;;12.30;7.75;;;9.90;99.90;;;;;;2071145;28;20030;-69
2022/05/06 02:11:22;;;;;;;9.23;7.40;;;9.80;99.90;;;;;;2069926;28;20061;-69
2022/05/06 02:12:23;;;;;;;10.00;7.63;;;9.80;99.90;;;;;;2072634;28;20501;-69
2022/05/06 02:13:23;;;;;;;12.20;8.23;;;9.80;99.90;;;;;;2072669;28;20033;-69
2022/05/06 02:14:24;;;;;;;10.75;7.63;;;9.80;99.90;;;;;;2072593;28;20053;-69
2022/05/06 02:15:25;;;;;;;10.93;8.00;;;9.80;99.90;;;;;;2070858;28;20030;-69
2022/05/06 02:16:25;;;;;;;10.15;7.80;;;9.80;99.90;;;;;;2068953;28;20493;-69
2022/05/06 02:17:26;;;;;;;11.95;7.70;;;9.80;99.90;;;;;;2072069;28;20484;-69
2022/05/06 02:18:29;;;;;;;11.05;8.05;;;9.80;99.90;;;;;;2072798;28;20013;-69
2022/05/06 02:19:29;;;;;;;9.82;8.35;;;9.80;99.90;;;;;;2068650;28;20545;-69
2022/05/06 02:20:30;;;;;;;11.85;8.50;;;9.70;99.90;;;;;;2072814;28;20097;-69
2022/05/06 02:21:31;;;;;;;10.43;7.28;;;9.70;99.90;;;;;;2070217;28;20018;-69
2022/05/06 02:22:32;;;;;;;13.00;7.75;;;9.70;99.90;;;;;;2072697;28;20026;-69
2022/05/06 02:23:32;;;;;;;10.45;8.77;;;9.70;99.90;;;;;;2070958;28;20487;-69
2022/05/06 02:24:33;;;;;;;11.20;7.45;;;9.70;99.90;;;;;;2070700;28;20417;-69
2022/05/06 02:25:35;;;;;;;12.43;8.27;;;9.70;99.90;;;;;;2074158;28;20431;-69
2022/05/06 02:26:36;;;;;;;12.27;8.50;;;9.70;99.90;;;;;;2068590;28;20022;-69
2022/05/06 02:27:37;;;;;;;10.98;8.65;;;9.70;99.90;;;;;;2070399;28;20064;-69
2022/05/06 02:28:37;;;;;;;13.20;9.55;;;9.70;99.90;;;;;;2070628;28;20034;-69
2022/05/06 02:29:39;;;;;;;11.23;8.07;;;9.70;99.90;;;;;;2075805;28;20053;-69
2022/05/06 02:33:23;;;;;;;13.77;8.10;;;9.60;99.90;;;;;;2066486;28;20034;-69
2022/05/06 02:34:23;;;;;;;11.32;7.72;;;9.60;99.90;;;;;;2070143;28;20022;-69
2022/05/06 02:35:25;;;;;;;13.43;8.50;;;9.60;99.90;;;;;;2069683;28;20030;-69
2022/05/06 02:36:26;;;;;;;12.32;7.85;;;9.60;99.90;;;;;;2068980;28;20478;-69
2022/05/06 02:37:26;;;;;;;12.35;8.75;;;9.60;99.90;;;;;;2072064;28;20489;-69
2022/05/06 02:38:28;;;;;;;12.20;8.45;;;9.60;99.90;;;;;;2069394;28;20026;-69
2022/05/06 02:39:28;;;;;;;13.55;8.95;;;9.50;99.90;;;;;;2071394;28;20053;-69
2022/05/06 02:40:29;;;;;;;10.98;8.70;;;9.60;99.90;;;;;;2071083;28;20517;-69
2022/05/06 02:41:29;;;;;;;13.55;8.40;;;9.50;99.90;;;;;;2072663;28;20447;-69
2022/05/06 02:42:30;;;;;;;13.10;9.13;;;9.50;99.90;;;;;;2067840;28;20033;-69
2022/05/06 02:43:30;;;;;;;11.30;8.70;;;9.50;99.90;;;;;;2072627;28;20461;-69
2022/05/06 02:44:31;;;;;;;14.25;9.00;;;9.50;99.90;;;;;;2071118;28;20076;-69
2022/05/06 02:45:33;;;;;;;13.30;8.50;;;9.50;99.90;;;;;;2070623;28;20022;-69
2022/05/06 02:46:35;;;;;;;10.88;8.25;;;9.50;99.90;;;;;;2070850;28;20030;-69
2022/05/06 02:47:35;;;;;;;9.90;8.35;;;9.50;99.90;;;;;;2069981;28;20046;-69
2022/05/06 02:48:36;;;;;;;12.57;8.20;;;9.50;99.90;;;;;;2071109;28;20025;-69
2022/05/06 02:49:36;;;;;;;10.77;7.50;;;9.40;99.90;;;;;;2070809;28;20028;-69
2022/05/06 02:50:38;;;;;;;12.18;8.82;;;9.40;99.90;;;;;;2068668;28;20466;-69
2022/05/06 02:51:39;;;;;;;10.73;8.45;;;9.50;99.90;;;;;;2069774;28;20030;-69
2022/05/06 02:52:39;;;;;;;11.00;7.90;;;9.40;99.90;;;;;;2072598;28;20639;-69
2022/05/06 02:53:40;;;;;;;9.32;8.38;;;9.40;99.90;;;;;;2071865;28;20397;-69
2022/05/06 02:54:41;;;;;;;10.70;8.48;;;9.40;99.90;;;;;;2068949;28;20033;-69
2022/05/06 02:55:41;;;;;;;9.90;7.78;;;9.40;99.90;;;;;;2072209;28;20034;-69
2022/05/06 02:56:42;;;;;;;12.98;8.55;;;9.40;99.90;;;;;;2066934;28;20034;-69
2022/05/06 02:57:43;;;;;;;12.75;8.75;;;9.40;99.90;;;;;;2070762;28;20057;-70
2022/05/06 02:58:43;;;;;;;14.27;8.95;;;9.40;99.90;;;;;;2072483;28;20026;-69
2022/05/06 02:59:44;;;;;;;10.27;8.32;;;9.40;99.90;;;;;;2070318;28;20030;-69
2022/05/06 03:00:44;;;;;;;13.88;8.65;;;9.30;99.90;;;;;;2072446;28;20045;-69
2022/05/06 03:01:45;;;;;;;12.40;8.65;;;9.30;99.90;;;;;;2067645;28;20057;-69
2022/05/06 03:02:46;;;;;;;11.55;8.23;;;9.30;99.90;;;;;;2069611;28;20089;-69
2022/05/06 03:03:47;;;;;;;13.38;8.55;;;9.30;99.90;;;;;;2068084;28;20030;-69
2022/05/06 03:04:47;;;;;;;10.38;8.30;;;9.30;99.90;;;;;;2068101;28;20029;-69
2022/05/06 03:05:48;;;;;;;9.73;8.27;;;9.30;99.90;;;;;;2068255;28;20587;-69
2022/05/06 03:06:49;;;;;;;11.30;8.52;;;9.30;99.90;;;;;;2070601;28;20285;-69
2022/05/06 03:07:50;;;;;;;12.38;9.25;;;9.30;99.90;;;;;;2071587;28;20517;-69
2022/05/06 03:08:50;;;;;;;11.23;8.77;;;9.30;99.90;;;;;;2066602;28;20018;-69
2022/05/06 03:09:52;;;;;;;10.00;8.30;;;9.30;99.90;;;;;;2068858;28;20030;-69
2022/05/06 03:10:53;;;;;;;11.07;8.50;;;9.30;99.90;;;;;;2053813;28;20035;-70
2022/05/06 03:11:54;;;;;;;12.32;8.68;;;9.20;99.90;;;;;;2060585;28;20058;-69
2022/05/06 03:12:58;;;;;;;11.35;7.60;;;9.20;99.90;;;;;;2067199;28;20089;-69
2022/05/06 03:13:58;;;;;;;12.63;8.45;;;9.20;99.90;;;;;;2072878;28;20041;-69
2022/05/06 03:15:03;;;;;;;11.98;8.95;;;9.20;99.90;;;;;;2068750;28;20085;-69
2022/05/06 03:16:03;;;;;;;14.05;8.90;;;9.20;99.90;;;;;;2068635;28;20018;-69
2022/05/06 03:17:05;;;;;;;11.30;8.27;;;9.20;99.90;;;;;;2071840;28;20045;-69
2022/05/06 03:18:06;;;;;;;10.23;8.57;;;9.20;99.90;;;;;;2071663;28;20018;-69
2022/05/06 03:19:07;;;;;;;13.38;8.60;;;9.20;99.90;;;;;;2070659;28;20153;-69
2022/05/06 03:20:08;;;;;;;9.95;7.78;;;9.20;99.90;;;;;;2072468;28;20401;-69
2022/05/06 03:21:09;;;;;;;9.25;8.20;;;9.20;99.90;;;;;;2073718;28;20021;-69
2022/05/06 03:22:10;;;;;;;12.30;8.30;;;9.10;99.90;;;;;;2072970;28;20493;-69
2022/05/06 03:23:13;;;;;;;10.27;8.30;;;9.10;99.90;;;;;;2070997;28;20036;-69
2022/05/06 03:24:13;;;;;;;10.93;8.38;;;9.10;99.90;;;;;;2071390;28;20577;-69
2022/05/06 03:25:15;;;;;;;17.40;8.60;;;9.10;99.90;;;;;;2068977;28;20473;-69
2022/05/06 03:26:16;;;;;;;13.73;8.50;;;9.10;99.90;;;;;;2069356;28;20033;-69
2022/05/06 03:28:35;;;;;;;9.80;8.10;;;9.10;99.90;;;;;;2068772;28;20057;-69
2022/05/06 03:29:37;;;;;;;9.45;8.20;;;9.10;99.90;;;;;;2069232;28;20499;-69
2022/05/06 03:30:44;;;;;;;12.10;8.93;;;9.10;99.90;;;;;;2075583;28;20480;-69
2022/05/06 03:31:45;;;;;;;11.73;8.45;;;9.00;99.90;;;;;;2074907;28;20040;-69
2022/05/06 03:32:46;;;;;;;9.77;7.95;;;9.00;99.90;;;;;;2072715;28;20032;-69
2022/05/06 03:33:47;;;;;;;13.15;9.05;;;9.00;99.90;;;;;;2070329;28;20034;-69
2022/05/06 03:34:49;;;;;;;10.40;8.18;;;9.00;99.90;;;;;;2069619;28;20054;-69
2022/05/06 03:35:50;;;;;;;10.63;7.75;;;9.00;99.90;;;;;;2070654;28;20030;-69
2022/05/06 03:36:50;;;;;;;12.57;8.75;;;9.00;99.90;;;;;;2072091;28;20034;-69
2022/05/06 03:37:52;;;;;;;10.23;8.57;;;9.00;99.90;;;;;;2068342;28;20107;-69
2022/05/06 03:38:53;;;;;;;10.25;8.00;;;9.00;99.90;;;;;;2072859;28;20018;-69
2022/05/06 03:39:53;;;;;;;13.93;8.40;;;9.00;99.90;;;;;;2072994;28;20116;-69
2022/05/06 03:40:55;;;;;;;9.13;7.30;;;9.00;99.90;;;;;;2072435;28;20508;-69
2022/05/06 03:41:55;;;;;;;11.75;8.25;;;9.00;99.90;;;;;;2069540;28;20025;-69
2022/05/06 03:42:56;;;;;;;9.43;7.78;;;9.00;99.90;;;;;;2071837;28;20056;-69
2022/05/06 03:43:57;;;;;;;9.07;7.72;;;9.00;99.90;;;;;;2071704;28;20032;-70
2022/05/06 03:44:59;;;;;;;10.18;7.53;;;9.00;99.90;;;;;;2074074;28;20045;-69
2022/05/06 03:46:00;;;;;;;9.35;8.15;;;9.00;99.90;;;;;;2070171;28;20132;-70
2022/05/06 03:47:00;;;;;;;12.88;8.20;;;9.00;99.90;;;;;;2072913;28;20026;-70
2022/05/06 03:48:01;;;;;;;11.32;7.53;;;9.00;99.90;;;;;;2070365;28;20022;-69
2022/05/06 03:49:01;;;;;;;9.13;7.68;;;9.00;99.90;;;;;;2071263;28;20030;-69
2022/05/06 03:51:23;;;;;;;8.05;7.25;;;9.00;99.90;;;;;;2071511;28;20030;-69
2022/05/06 03:52:23;;;;;;;10.52;8.55;;;8.90;99.90;;;;;;2071241;28;20030;-69
2022/05/06 03:53:24;;;;;;;11.48;7.60;;;8.90;99.90;;;;;;2070179;28;20030;-69
2022/05/06 03:54:26;;;;;;;10.57;8.27;;;8.90;99.90;;;;;;2069368;28;20049;-70
2022/05/06 03:55:26;;;;;;;10.43;8.10;;;8.90;99.90;;;;;;2070646;28;20022;-70
2022/05/06 03:56:27;;;;;;;8.50;7.70;;;8.90;99.90;;;;;;2068105;28;20076;-70
2022/05/06 03:57:28;;;;;;;10.43;8.55;;;8.90;99.90;;;;;;2069097;28;20030;-69
2022/05/06 03:58:28;;;;;;;10.35;7.30;;;8.90;99.90;;;;;;2070739;28;20149;-70
2022/05/06 03:59:30;;;;;;;11.45;8.68;;;8.90;99.90;;;;;;2072561;28;20030;-69
2022/05/06 04:00:31;;;;;;;11.90;9.05;;;8.90;99.90;;;;;;2073002;28;20366;-69
2022/05/06 04:01:31;;;;;;;9.50;8.00;;;8.90;99.90;;;;;;2070704;28;20109;-69
2022/05/06 04:02:36;;;;;;;10.00;8.15;;;8.90;99.90;;;;;;2066077;28;20075;-70
2022/05/06 04:03:38;;;;;;;9.82;8.10;;;8.90;99.90;;;;;;2069825;28;20765;-70
2022/05/06 04:04:38;;;;;;;9.15;8.02;;;8.90;99.90;;;;;;2071110;28;20389;-70
2022/05/06 04:05:40;;;;;;;11.05;8.10;;;8.90;99.90;;;;;;2071226;28;20040;-69
2022/05/06 04:06:42;;;;;;;11.18;8.10;;;8.90;99.90;;;;;;2070717;28;20022;-69
2022/05/06 04:07:43;;;;;;;10.40;8.23;;;8.80;99.90;;;;;;2072911;28;20022;-69
2022/05/06 04:08:43;;;;;;;10.13;7.85;;;8.90;99.90;;;;;;2073604;28;20079;-69
2022/05/06 04:09:44;;;;;;;10.55;8.48;;;8.90;99.90;;;;;;2073769;28;20018;-70
2022/05/06 04:10:44;;;;;;;12.23;8.90;;;8.90;99.90;;;;;;2072827;28;20478;-69
2022/05/06 04:11:45;;;;;;;8.15;7.32;;;8.90;99.90;;;;;;2069267;28;20050;-69
2022/05/06 04:12:46;;;;;;;9.95;8.30;;;8.90;99.90;;;;;;2072641;28;20021;-69
2022/05/06 04:13:47;;;;;;;9.88;7.57;;;8.80;99.90;;;;;;2072827;28;20458;-69
2022/05/06 04:14:48;;;;;;;9.40;7.63;;;8.80;99.90;;;;;;2070785;28;20030;-69
2022/05/06 04:15:50;;;;;;;11.55;8.48;;;8.80;99.90;;;;;;2069363;28;20493;-69
2022/05/06 04:16:50;;;;;;;11.25;9.13;;;8.90;99.90;;;;;;2073815;28;20560;-69
2022/05/06 04:17:51;;;;;;;13.70;9.30;;;8.80;99.90;;;;;;2069683;28;20084;-69
2022/05/06 04:18:51;;;;;;;12.00;8.65;;;8.90;99.90;;;;;;2073971;28;20026;-70
2022/05/06 04:23:50;;;;;;;9.73;7.93;;;8.80;99.90;;;;;;2069979;28;20116;-69
2022/05/06 04:24:51;;;;;;;10.00;8.98;;;8.80;99.90;;;;;;2069937;28;20041;-69
2022/05/06 04:25:51;;;;;;;10.93;9.50;;;8.80;99.90;;;;;;2071378;28;20022;-69
2022/05/06 04:26:52;;;;;;;10.63;9.45;;;8.80;99.90;;;;;;2069550;28;20036;-69
2022/05/06 04:27:53;;;;;;;13.73;9.90;;;8.80;99.90;;;;;;2070381;28;20026;-69
2022/05/06 04:28:53;;;;;;;15.40;9.63;;;8.80;99.90;;;;;;2070069;28;20060;-69
2022/05/06 04:29:54;;;;;;;11.57;9.50;;;8.80;99.90;;;;;;2070572;28;20034;-70
2022/05/06 04:30:55;;;;;;;10.48;8.85;;;8.80;99.90;;;;;;2071893;28;20615;-69
2022/05/06 04:31:55;;;;;;;10.52;9.38;;;8.90;99.90;;;;;;2069386;28;20370;-69
2022/05/06 04:32:56;;;;;;;10.88;8.98;;;8.80;99.90;;;;;;2070729;28;20085;-69
2022/05/06 04:33:56;;;;;;;11.93;9.32;;;8.80;99.90;;;;;;2071116;28;20037;-69
2022/05/06 04:34:57;;;;;;;12.00;9.40;;;8.90;99.90;;;;;;2069531;28;20014;-69
2022/05/06 04:35:59;;;;;;;11.32;8.77;;;8.90;99.90;;;;;;2069120;28;20057;-69
2022/05/06 04:36:59;;;;;;;13.32;9.95;;;8.90;99.90;;;;;;2073157;28;20442;-69
2022/05/06 04:38:00;;;;;;;15.45;10.02;;;8.90;99.90;;;;;;2072955;28;20045;-69
2022/05/06 04:39:00;;;;;;;10.57;9.38;;;9.00;99.90;;;;;;2070137;28;20029;-69
2022/05/06 04:40:01;;;;;;;13.48;9.48;;;9.00;99.90;;;;;;2071996;28;20560;-70
2022/05/06 04:41:02;;;;;;;15.43;9.70;;;9.00;99.90;;;;;;2071006;28;20029;-69
2022/05/06 04:42:03;;;;;;;13.80;10.13;;;8.90;99.90;;;;;;2069255;28;20029;-69
2022/05/06 04:43:04;;;;;;;14.35;9.85;;;9.00;99.90;;;;;;2070218;28;20119;-69
2022/05/06 04:44:04;;;;;;;10.60;9.45;;;9.00;99.90;;;;;;2073292;28;20558;-69
2022/05/06 04:45:06;;;;;;;12.60;8.95;;;9.00;99.90;;;;;;2074247;28;20025;-69
2022/05/06 04:46:06;;;;;;;9.75;8.82;;;9.00;99.90;;;;;;2071291;28;20097;-69
2022/05/06 04:47:07;;;;;;;12.80;9.05;;;9.00;99.90;;;;;;2070497;28;20581;-69
2022/05/06 04:48:08;;;;;;;10.98;9.85;;;9.00;99.90;;;;;;2070972;28;20033;-69
2022/05/06 04:49:09;;;;;;;11.13;8.85;;;9.00;99.90;;;;;;2071344;28;20026;-69
2022/05/06 04:50:10;;;;;;;12.45;10.13;;;9.10;99.90;;;;;;2072690;28;20081;-69
2022/05/06 04:51:10;;;;;;;12.88;10.32;;;9.10;99.90;;;;;;2070848;28;20029;-69
2022/05/06 04:52:11;;;;;;;11.07;9.88;;;9.10;99.90;;;;;;2071490;28;20036;-69
2022/05/06 04:53:13;;;;;;;10.50;9.40;;;9.10;99.90;;;;;;2068813;28;20030;-69
2022/05/06 04:54:13;;;;;;;14.02;10.52;;;9.20;99.90;;;;;;2074399;28;20021;-69
2022/05/06 04:55:14;;;;;;;11.57;9.40;;;9.20;99.90;;;;;;2068595;28;20080;-69
2022/05/06 04:56:14;;;;;;;10.75;9.20;;;9.20;99.90;;;;;;2068915;28;20022;-69
2022/05/06 04:57:15;;;;;;;14.32;10.70;;;9.30;99.90;;;;;;2069189;28;20030;-69
2022/05/06 04:58:17;;;;;;;13.82;10.48;;;9.30;99.90;;;;;;2071079;28;20026;-69
2022/05/06 04:59:17;;;;;;;12.32;11.05;;;9.40;99.90;;;;;;2069710;28;20397;-69
2022/05/06 05:00:19;;;;;;;11.95;9.63;;;9.40;99.90;;;;;;2071850;28;20021;-69
2022/05/06 05:01:20;;;;;;;12.18;10.18;;;9.50;99.90;;;;;;2070970;28;20096;-69
2022/05/06 05:02:21;;;;;;;14.68;9.60;;;9.50;99.90;;;;;;2073070;28;20026;-69
2022/05/06 05:03:22;;;;;;;11.02;9.90;;;9.60;99.90;;;;;;2068524;28;20113;-69
2022/05/06 05:04:27;;;;;;;11.55;9.85;;;9.60;99.90;;;;;;2071067;28;20014;-69
2022/05/06 05:05:28;;;;;;;14.63;10.68;;;9.70;99.90;;;;;;2071586;28;20383;-69
2022/05/06 05:06:30;;;;;;;11.02;9.10;;;9.70;99.90;;;;;;2069715;28;20026;-69
2022/05/06 05:07:30;;;;;;;11.98;9.68;;;9.80;99.90;;;;;;2070325;28;20100;-69
2022/05/06 05:08:31;;;;;;;11.98;10.13;;;9.90;99.90;;;;;;2068733;28;20045;-69
2022/05/06 05:09:31;;;;;;;13.57;10.52;;;10.00;99.90;;;;;;2069914;28;20389;-69
2022/05/06 05:10:32;;;;;;;9.43;8.52;;;10.00;99.90;;;;;;2071956;28;20461;-69
2022/05/06 05:11:34;;;;;;;11.55;9.32;;;10.10;99.90;;;;;;2070733;28;20663;-69
2022/05/06 05:12:35;;;;;;;15.43;10.05;;;10.20;99.90;;;;;;2069808;28;20027;-69
2022/05/06 05:13:38;;;;;;;10.55;8.88;;;10.30;99.90;;;;;;2070732;28;20545;-69
2022/05/06 05:14:39;;;;;;;13.55;10.23;;;10.40;99.90;;;;;;2070246;28;20010;-69
2022/05/06 05:15:39;;;;;;;12.07;9.10;;;10.50;99.90;;;;;;2069557;28;20026;-69
2022/05/06 05:16:40;;;;;;;11.05;9.60;;;10.60;99.90;;;;;;2068323;28;20026;-69
2022/05/06 05:17:41;;;;;;;11.02;9.68;;;10.70;99.90;;;;;;2070420;28;20420;-69
2022/05/06 05:18:41;;;;;;;12.88;9.63;;;10.80;99.90;;;;;;2070623;28;20018;-69
2022/05/06 05:19:42;;;;;;;12.52;10.05;;;10.90;99.90;;;;;;2069787;28;20034;-69
2022/05/06 05:20:43;;;;;;;14.70;11.02;;;11.10;99.90;;;;;;2068919;28;20046;-69
2022/05/06 05:21:43;;;;;;;12.55;10.43;;;11.10;99.90;;;;;;2072773;28;20149;-69
2022/05/06 05:22:44;;;;;;;12.63;10.13;;;11.20;99.90;;;;;;2071432;28;20478;-69
2022/05/06 05:23:45;;;;;;;12.75;10.27;;;11.40;99.90;;;;;;2069155;28;20121;-69
2022/05/06 05:24:46;;;;;;;13.23;9.80;;;11.50;99.90;;;;;;2069622;28;20132;-69
2022/05/06 05:25:46;;;;;;;11.40;10.20;;;11.60;99.90;;;;;;2070308;28;20025;-69
2022/05/06 05:26:47;;;;;;;14.05;10.50;;;11.80;99.90;;;;;;2071116;28;20157;-69
2022/05/06 05:27:47;;;;;;;14.25;9.65;;;11.90;99.90;;;;;;2068307;28;20388;-69
2022/05/06 05:28:48;;;;;;;13.50;10.02;;;12.00;99.90;;;;;;2067424;28;20033;-69
2022/05/06 05:29:48;;;;;;;12.23;9.57;;;12.10;99.90;;;;;;2072917;28;20097;-69